createdAt,value
2018-06-03T00:00:38.045Z,75.82
2018-06-03T00:03:08.624Z,76.00
2018-06-03T00:05:39.092Z,76.31
2018-06-03T00:08:09.309Z,76.09
2018-06-03T00:10:39.944Z,76.53
2018-06-03T00:13:10.430Z,76.31
2018-06-03T00:15:40.905Z,76.34
2018-06-03T00:18:11.423Z,75.94
2018-06-03T00:20:58.765Z,75.09
2018-06-03T00:23:29.321Z,76.34
2018-06-03T00:25:59.790Z,76.09
2018-06-03T00:28:30.334Z,75.73
2018-06-03T00:31:01.048Z,76.21
2018-06-03T00:33:31.817Z,75.70
2018-06-03T00:36:19.070Z,75.41
2018-06-03T00:38:50.762Z,75.12
2018-06-03T00:41:21.426Z,75.49
2018-06-03T00:43:52.041Z,75.61
2018-06-03T00:46:23.350Z,75.60
2018-06-03T00:48:53.899Z,75.40
2018-06-03T00:51:24.814Z,75.61
2018-06-03T00:53:55.345Z,75.71
2018-06-03T00:56:42.706Z,75.69
2018-06-03T00:59:14.726Z,76.40
2018-06-03T01:01:45.222Z,76.84
2018-06-03T01:04:15.808Z,76.98
2018-06-03T01:06:46.829Z,76.91
2018-06-03T01:09:17.379Z,76.57
2018-06-03T01:11:49.037Z,76.47
2018-06-03T01:14:20.265Z,77.34
2018-06-03T01:16:51.097Z,77.17
2018-06-03T01:19:21.756Z,77.39
2018-06-03T01:21:52.329Z,77.38
2018-06-03T01:24:22.799Z,77.20
2018-06-03T01:26:53.543Z,78.04
2018-06-03T01:29:24.260Z,77.83
2018-06-03T01:31:54.891Z,77.64
2018-06-03T01:34:25.491Z,78.09
2018-06-03T01:36:57.990Z,78.56
2018-06-03T01:39:28.527Z,78.80
2018-06-03T01:41:59.085Z,78.26
2018-06-03T01:44:29.605Z,78.30
2018-06-03T01:47:00.113Z,78.61
2018-06-03T01:49:31.278Z,78.32
2018-06-03T01:52:02.925Z,78.42
2018-06-03T01:54:33.488Z,77.21
2018-06-03T01:57:04.176Z,77.18
2018-06-03T01:59:34.643Z,77.76
2018-06-03T02:02:06.221Z,78.05
2018-06-03T02:04:36.674Z,77.92
2018-06-03T02:07:07.302Z,77.89
2018-06-03T02:09:37.822Z,77.60
2018-06-03T02:12:08.521Z,77.43
2018-06-03T02:14:39.387Z,77.37
2018-06-03T02:17:10.280Z,76.84
2018-06-03T02:19:40.765Z,77.37
2018-06-03T02:22:11.719Z,77.12
2018-06-03T02:24:42.252Z,77.28
2018-06-03T02:27:15.253Z,77.85
2018-06-03T02:29:46.398Z,77.39
2018-06-03T02:32:18.530Z,76.93
2018-06-03T02:34:49.160Z,76.63
2018-06-03T02:37:19.837Z,76.55
2018-06-03T02:39:50.383Z,77.24
2018-06-03T02:42:22.000Z,77.11
2018-06-03T02:44:52.521Z,77.67
2018-06-03T02:47:23.505Z,77.59
2018-06-03T02:49:54.070Z,78.00
2018-06-03T02:52:25.737Z,77.67
2018-06-03T02:54:56.783Z,77.81
2018-06-03T02:57:28.369Z,78.05
2018-06-03T02:59:59.198Z,78.12
2018-06-03T03:02:29.380Z,78.26
2018-06-03T03:04:59.766Z,77.62
2018-06-03T03:07:30.151Z,78.53
2018-06-03T03:10:00.756Z,77.83
2018-06-03T03:12:31.712Z,78.45
2018-06-03T03:15:02.530Z,78.44
2018-06-03T03:17:32.984Z,78.88
2018-06-03T03:20:04.125Z,79.13
2018-06-03T03:22:34.621Z,78.71
2018-06-03T03:25:05.259Z,78.61
2018-06-03T03:27:35.860Z,78.07
2018-06-03T03:30:06.486Z,77.98
2018-06-03T03:32:37.390Z,78.31
2018-06-03T03:35:08.378Z,77.90
2018-06-03T03:37:39.135Z,78.50
2018-06-03T03:40:10.101Z,78.01
2018-06-03T03:42:41.036Z,78.01
2018-06-03T03:45:11.828Z,78.98
2018-06-03T03:47:42.827Z,78.96
2018-06-03T03:50:14.120Z,79.32
2018-06-03T03:52:44.760Z,78.94
2018-06-03T03:55:16.058Z,79.40
2018-06-03T03:57:46.526Z,78.88
2018-06-03T04:00:17.296Z,79.04
2018-06-03T04:02:48.358Z,78.92
2018-06-03T04:05:18.928Z,79.22
2018-06-03T04:07:49.043Z,78.74
2018-06-03T04:10:19.520Z,78.70
2018-06-03T04:12:50.001Z,78.27
2018-06-03T04:15:20.656Z,77.43
2018-06-03T04:17:51.268Z,76.85
2018-06-03T04:20:21.626Z,77.13
2018-06-03T04:22:52.774Z,77.84
2018-06-03T04:25:23.394Z,77.00
2018-06-03T04:27:53.939Z,77.69
2018-06-03T04:30:24.717Z,78.31
2018-06-03T04:32:55.484Z,78.07
2018-06-03T04:35:26.018Z,78.01
2018-06-03T04:37:56.713Z,77.93
2018-06-03T04:40:27.266Z,78.40
2018-06-03T04:42:58.249Z,78.26
2018-06-03T04:45:29.012Z,78.26
2018-06-03T04:48:00.852Z,77.76
2018-06-03T04:50:31.470Z,77.65
2018-06-03T04:53:02.936Z,77.98
2018-06-03T04:55:33.790Z,77.01
2018-06-03T04:58:04.585Z,76.18
2018-06-03T05:00:35.222Z,76.53
2018-06-03T05:03:07.401Z,75.99
2018-06-03T05:05:37.863Z,75.37
2018-06-03T05:08:08.398Z,75.66
2018-06-03T05:10:39.218Z,74.64
2018-06-03T05:13:09.746Z,74.67
2018-06-03T05:15:40.250Z,75.05
2018-06-03T05:18:11.921Z,74.91
2018-06-03T05:20:42.421Z,74.80
2018-06-03T05:23:14.065Z,74.19
2018-06-03T05:25:44.617Z,73.33
2018-06-03T05:28:15.371Z,72.77
2018-06-03T05:30:45.969Z,71.74
2018-06-03T05:33:16.216Z,71.65
2018-06-03T05:35:46.727Z,71.05
2018-06-03T05:38:17.173Z,69.62
2018-06-03T05:40:47.913Z,69.30
2018-06-03T05:43:18.785Z,68.53
2018-06-03T05:45:49.588Z,68.08
2018-06-03T05:48:20.281Z,67.62
2018-06-03T05:50:50.873Z,67.90
2018-06-03T05:53:21.827Z,68.23
2018-06-03T05:55:52.431Z,67.56
2018-06-03T05:58:24.054Z,67.98
2018-06-03T06:00:55.006Z,69.68
2018-06-03T06:03:25.753Z,69.46
2018-06-03T06:05:56.751Z,69.81
2018-06-03T06:08:27.868Z,69.90
2018-06-03T06:10:58.642Z,69.27
2018-06-03T06:13:29.218Z,69.05
2018-06-03T06:15:59.748Z,68.01
2018-06-03T06:18:30.421Z,68.15
2018-06-03T06:21:01.238Z,67.27
2018-06-03T06:23:31.891Z,67.07
2018-06-03T06:26:02.447Z,66.65
2018-06-03T06:28:32.934Z,66.81
2018-06-03T06:31:03.265Z,66.02
2018-06-03T06:33:34.826Z,65.33
2018-06-03T06:36:06.421Z,65.05
2018-06-03T06:38:37.216Z,65.43
2018-06-03T06:41:07.881Z,64.90
2018-06-03T06:43:38.875Z,65.05
2018-06-03T06:46:09.481Z,64.96
2018-06-03T06:48:40.149Z,64.31
2018-06-03T06:51:11.431Z,63.74
2018-06-03T06:53:42.294Z,63.50
2018-06-03T06:56:12.829Z,63.94
2018-06-03T06:58:43.422Z,63.48
2018-06-03T07:01:14.936Z,62.94
2018-06-03T07:03:45.877Z,62.89
2018-06-03T07:06:16.377Z,63.68
2018-06-03T07:08:46.942Z,62.38
2018-06-03T07:11:18.267Z,63.04
2018-06-03T07:13:48.755Z,63.53
2018-06-03T07:16:19.357Z,62.55
2018-06-03T07:18:51.246Z,62.43
2018-06-03T07:21:21.991Z,62.49
2018-06-03T07:23:52.713Z,63.06
2018-06-03T07:26:23.616Z,61.72
2018-06-03T07:28:55.531Z,61.97
2018-06-03T07:31:26.134Z,61.89
2018-06-03T07:33:56.681Z,61.97
2018-06-03T07:36:27.511Z,61.63
2018-06-03T07:38:59.075Z,61.91
2018-06-03T07:41:29.613Z,61.59
2018-06-03T07:44:00.539Z,62.12
2018-06-03T07:46:31.312Z,61.81
2018-06-03T07:49:02.138Z,62.63
2018-06-03T07:51:33.126Z,62.37
2018-06-03T07:54:03.645Z,61.92
2018-06-03T07:56:34.010Z,61.75
2018-06-03T07:59:05.776Z,61.37
2018-06-03T08:01:36.599Z,60.71
2018-06-03T08:04:07.954Z,59.98
2018-06-03T08:06:38.526Z,60.46
2018-06-03T08:09:09.145Z,60.88
2018-06-03T08:11:39.691Z,61.84
2018-06-03T08:14:11.284Z,60.59
2018-06-03T08:16:41.903Z,60.82
2018-06-03T08:19:12.616Z,59.77
2018-06-03T08:21:43.284Z,60.48
2018-06-03T08:24:15.959Z,60.42
2018-06-03T08:26:46.579Z,59.52
2018-06-03T08:29:17.422Z,60.17
2018-06-03T08:31:48.273Z,59.94
2018-06-03T08:34:19.094Z,58.51
2018-06-03T08:36:49.736Z,59.74
2018-06-03T08:39:20.313Z,58.77
2018-06-03T08:41:50.934Z,59.15
2018-06-03T08:44:21.711Z,57.90
2018-06-03T08:46:52.272Z,58.92
2018-06-03T08:49:23.145Z,56.96
2018-06-03T08:51:54.201Z,56.50
2018-06-03T08:54:24.809Z,56.10
2018-06-03T08:56:55.085Z,56.61
2018-06-03T08:59:26.705Z,56.18
2018-06-03T09:01:57.619Z,55.80
2018-06-03T09:04:28.282Z,55.42
2018-06-03T09:06:58.912Z,54.96
2018-06-03T09:09:29.553Z,55.59
2018-06-03T09:11:59.999Z,55.43
2018-06-03T09:14:30.534Z,54.74
2018-06-03T09:17:01.403Z,53.97
2018-06-03T09:19:32.394Z,54.09
2018-06-03T09:22:02.937Z,54.39
2018-06-03T09:24:33.642Z,53.40
2018-06-03T09:27:04.327Z,52.06
2018-06-03T09:29:36.369Z,52.29
2018-06-03T09:32:06.648Z,53.68
2018-06-03T09:34:37.669Z,53.34
2018-06-03T09:37:08.051Z,53.00
2018-06-03T09:39:38.715Z,53.85
2018-06-03T09:42:09.593Z,52.66
2018-06-03T09:44:39.816Z,51.77
2018-06-03T09:47:11.806Z,51.55
2018-06-03T09:49:42.470Z,51.58
2018-06-03T09:52:13.822Z,51.00
2018-06-03T09:54:44.515Z,52.58
2018-06-03T09:57:15.437Z,51.65
2018-06-03T09:59:46.125Z,52.48
2018-06-03T10:02:16.856Z,49.68
2018-06-03T10:04:48.042Z,49.88
2018-06-03T10:07:18.532Z,49.69
2018-06-03T10:09:49.359Z,48.29
2018-06-03T10:12:19.942Z,47.57
2018-06-03T10:14:50.694Z,46.76
2018-06-03T10:17:21.301Z,46.96
2018-06-03T10:19:52.043Z,46.02
2018-06-03T10:22:22.630Z,45.19
2018-06-03T10:24:53.116Z,45.91
2018-06-03T10:27:23.633Z,44.99
2018-06-03T10:29:54.202Z,45.26
2018-06-03T10:32:24.714Z,45.36
2018-06-03T10:34:55.227Z,44.19
2018-06-03T10:37:25.803Z,44.49
2018-06-03T10:39:56.624Z,44.79
2018-06-03T10:42:27.291Z,45.39
2018-06-03T10:44:57.417Z,46.57
2018-06-03T10:47:27.831Z,45.72
2018-06-03T10:49:59.545Z,46.76
2018-06-03T10:52:30.089Z,45.69
2018-06-03T10:55:00.655Z,45.89
2018-06-03T10:57:31.170Z,44.30
2018-06-03T11:00:01.771Z,43.54
2018-06-03T11:02:32.292Z,43.33
2018-06-03T11:05:02.928Z,43.64
2018-06-03T11:07:33.427Z,43.81
2018-06-03T11:10:04.322Z,43.53
2018-06-03T11:12:35.184Z,43.97
2018-06-03T11:15:06.983Z,44.44
2018-06-03T11:17:37.584Z,43.40
2018-06-03T11:20:08.368Z,42.61
2018-06-03T11:22:38.929Z,42.19
2018-06-03T11:25:09.603Z,42.29
2018-06-03T11:27:40.791Z,42.54
2018-06-03T11:30:11.777Z,42.95
2018-06-03T11:32:42.359Z,43.29
2018-06-03T11:35:13.136Z,43.68
2018-06-03T11:37:43.715Z,42.73
2018-06-03T11:40:15.414Z,43.28
2018-06-03T11:42:46.026Z,41.95
2018-06-03T11:45:16.659Z,42.57
2018-06-03T11:47:47.255Z,43.74
2018-06-03T11:50:17.867Z,44.21
2018-06-03T11:52:48.769Z,42.79
2018-06-03T11:55:19.424Z,42.91
2018-06-03T11:58:54.090Z,41.90
2018-06-03T12:01:25.417Z,44.61
2018-06-03T12:03:56.966Z,42.24
2018-06-03T12:06:27.607Z,42.83
2018-06-03T12:08:58.212Z,43.55
2018-06-03T12:11:28.717Z,43.44
2018-06-03T12:14:00.423Z,42.53
2018-06-03T12:16:31.783Z,41.43
2018-06-03T12:19:02.291Z,43.38
2018-06-03T12:21:32.796Z,42.07
2018-06-03T12:24:03.776Z,41.64
2018-06-03T12:26:34.280Z,42.57
2018-06-03T12:29:05.927Z,42.54
2018-06-03T12:31:36.467Z,42.39
2018-06-03T12:34:08.046Z,43.07
2018-06-03T12:36:38.634Z,42.35
2018-06-03T12:39:10.885Z,40.85
2018-06-03T12:41:41.442Z,41.54
2018-06-03T12:44:11.962Z,40.50
2018-06-03T12:46:42.527Z,39.79
2018-06-03T12:49:14.146Z,38.56
2018-06-03T12:51:44.645Z,38.33
2018-06-03T12:54:16.134Z,40.04
2018-06-03T12:56:46.650Z,39.72
2018-06-03T12:59:16.875Z,39.92
2018-06-03T13:01:47.284Z,40.81
2018-06-03T13:04:17.807Z,39.59
2018-06-03T13:06:48.362Z,40.76
2018-06-03T13:09:20.024Z,40.68
2018-06-03T13:11:50.754Z,40.17
2018-06-03T13:14:22.285Z,39.23
2018-06-03T13:16:52.899Z,40.65
2018-06-03T13:19:24.527Z,40.10
2018-06-03T13:21:54.852Z,39.90
2018-06-03T13:24:25.303Z,39.09
2018-06-03T13:26:55.816Z,38.82
2018-06-03T13:29:26.384Z,38.64
2018-06-03T13:31:57.000Z,38.17
2018-06-03T13:34:27.492Z,37.48
2018-06-03T13:36:57.979Z,37.57
2018-06-03T13:39:28.183Z,38.05
2018-06-03T13:41:58.645Z,38.59
2018-06-03T13:44:29.352Z,39.30
2018-06-03T13:46:59.862Z,39.45
2018-06-03T13:49:30.522Z,38.95
2018-06-03T13:52:01.033Z,38.34
2018-06-03T13:54:32.523Z,37.94
2018-06-03T13:57:03.140Z,37.23
2018-06-03T13:59:34.734Z,38.05
2018-06-03T14:02:05.558Z,37.25
2018-06-03T14:04:36.076Z,37.46
2018-06-03T14:07:06.759Z,38.11
2018-06-03T14:09:37.299Z,36.59
2018-06-03T14:12:08.903Z,40.00
2018-06-03T14:14:39.393Z,40.11
2018-06-03T14:17:10.983Z,40.23
2018-06-03T14:19:41.836Z,40.73
2018-06-03T14:22:12.588Z,41.32
2018-06-03T14:24:43.106Z,41.27
2018-06-03T14:27:13.587Z,39.21
2018-06-03T14:29:44.278Z,39.30
2018-06-03T14:32:15.842Z,38.66
2018-06-03T14:34:46.483Z,39.73
2018-06-03T14:37:17.044Z,38.81
2018-06-03T14:39:47.893Z,39.63
2018-06-03T14:42:18.448Z,39.94
2018-06-03T14:44:49.053Z,40.28
2018-06-03T14:47:20.553Z,39.82
2018-06-03T14:49:51.165Z,38.14
2018-06-03T14:52:25.605Z,37.15
2018-06-03T14:54:56.120Z,37.04
2018-06-03T14:57:26.719Z,36.31
2018-06-03T14:59:57.220Z,36.21
2018-06-03T15:02:29.796Z,36.69
2018-06-03T15:05:00.348Z,36.56
2018-06-03T15:07:31.910Z,37.40
2018-06-03T15:10:02.444Z,37.25
2018-06-03T15:12:32.962Z,37.12
2018-06-03T15:15:03.532Z,37.62
2018-06-03T15:17:34.184Z,36.33
2018-06-03T15:20:04.994Z,36.02
2018-06-03T15:22:36.258Z,36.28
2018-06-03T15:25:06.865Z,36.51
2018-06-03T15:27:39.117Z,36.34
2018-06-03T15:30:09.737Z,36.08
2018-06-03T15:32:40.298Z,35.92
2018-06-03T15:35:10.900Z,35.39
2018-06-03T15:37:42.416Z,35.29
2018-06-03T15:40:13.043Z,36.58
2018-06-03T15:42:44.623Z,35.44
2018-06-03T15:45:15.509Z,36.41
2018-06-03T15:47:46.090Z,35.75
2018-06-03T15:50:16.722Z,35.10
2018-06-03T15:52:47.250Z,35.44
2018-06-03T15:55:17.735Z,34.96
2018-06-03T15:57:50.288Z,35.78
2018-06-03T16:00:20.860Z,35.52
2018-06-03T16:02:51.383Z,34.78
2018-06-03T16:05:22.082Z,34.42
2018-06-03T16:07:53.038Z,35.32
2018-06-03T16:10:23.600Z,35.01
2018-06-03T16:12:55.195Z,35.82
2018-06-03T16:15:25.708Z,35.18
2018-06-03T16:17:56.286Z,35.80
2018-06-03T16:20:26.681Z,36.30
2018-06-03T16:22:57.182Z,37.63
2018-06-03T16:25:27.806Z,36.94
2018-06-03T16:27:58.970Z,36.36
2018-06-03T16:30:29.836Z,34.89
2018-06-03T16:33:00.311Z,34.62
2018-06-03T16:35:30.946Z,34.35
2018-06-03T16:38:02.386Z,33.93
2018-06-03T16:40:33.156Z,34.27
2018-06-03T16:43:03.684Z,33.03
2018-06-03T16:45:34.261Z,32.88
2018-06-03T16:48:04.851Z,33.40
2018-06-03T16:50:36.514Z,33.37
2018-06-03T16:53:07.092Z,33.68
2018-06-03T16:55:37.724Z,32.42
2018-06-03T16:58:08.318Z,32.05
2018-06-03T17:00:38.946Z,32.23
2018-06-03T17:03:09.550Z,32.33
2018-06-03T17:05:40.071Z,32.29
2018-06-03T17:08:10.563Z,29.29
2018-06-03T17:10:42.036Z,28.19
2018-06-03T17:13:12.543Z,25.73
2018-06-03T17:15:43.194Z,24.61
2018-06-03T17:18:13.781Z,24.85
2018-06-03T17:20:44.630Z,26.12
2018-06-03T17:23:15.133Z,27.05
2018-06-03T17:25:45.601Z,27.47
2018-06-03T17:28:16.177Z,28.19
2018-06-03T17:30:46.877Z,29.15
2018-06-03T17:33:17.542Z,30.05
2018-06-03T17:35:48.149Z,31.17
2018-06-03T17:38:18.707Z,32.52
2018-06-03T17:40:49.969Z,32.54
2018-06-03T17:43:20.515Z,34.75
2018-06-03T17:45:55.679Z,36.10
2018-06-03T17:48:26.366Z,38.56
2018-06-03T17:50:57.187Z,39.75
2018-06-03T17:53:27.714Z,39.95
2018-06-03T17:55:58.275Z,40.30
2018-06-03T17:58:28.956Z,41.78
2018-06-03T18:00:59.602Z,40.35
2018-06-03T18:03:30.159Z,40.49
2018-06-03T18:06:00.884Z,40.85
2018-06-03T18:08:31.788Z,41.21
2018-06-03T18:11:03.027Z,41.81
2018-06-03T18:13:33.665Z,42.67
2018-06-03T18:16:04.295Z,42.59
2018-06-03T18:18:34.830Z,41.99
2018-06-03T18:21:06.397Z,41.82
2018-06-03T18:23:37.119Z,42.56
2018-06-03T18:26:08.799Z,42.98
2018-06-03T18:28:39.473Z,43.75
2018-06-03T18:31:10.081Z,43.49
2018-06-03T18:33:40.734Z,43.59
2018-06-03T18:36:11.264Z,43.94
2018-06-03T18:38:41.832Z,44.18
2018-06-03T18:41:12.353Z,44.93
2018-06-03T18:43:42.854Z,44.71
2018-06-03T18:46:13.409Z,45.48
2018-06-03T18:48:44.030Z,46.08
2018-06-03T18:51:15.598Z,46.41
2018-06-03T18:53:46.110Z,46.62
2018-06-03T18:56:16.675Z,47.06
2018-06-03T18:58:47.242Z,46.67
2018-06-03T19:01:17.858Z,47.62
2018-06-03T19:03:48.484Z,47.24
2018-06-03T19:06:19.126Z,47.26
2018-06-03T19:08:49.645Z,47.37
2018-06-03T19:11:20.262Z,48.98
2018-06-03T19:13:50.813Z,47.98
2018-06-03T19:16:21.339Z,49.00
2018-06-03T19:18:52.851Z,48.75
2018-06-03T19:21:23.558Z,48.45
2018-06-03T19:23:54.189Z,48.24
2018-06-03T19:26:24.793Z,48.44
2018-06-03T19:28:55.407Z,48.75
2018-06-03T19:31:27.043Z,49.66
2018-06-03T19:33:57.677Z,49.85
2018-06-03T19:36:28.363Z,48.36
2018-06-03T19:38:58.888Z,48.81
2018-06-03T19:41:29.290Z,49.81
2018-06-03T19:43:59.781Z,49.48
2018-06-03T19:46:30.409Z,49.81
2018-06-03T19:49:00.939Z,49.57
2018-06-03T19:51:31.698Z,50.18
2018-06-03T19:54:03.180Z,50.56
2018-06-03T19:56:33.815Z,50.24
2018-06-03T19:59:04.444Z,51.01
2018-06-03T20:01:34.666Z,50.92
2018-06-03T20:04:06.487Z,50.90
2018-06-03T20:06:37.057Z,51.34
2018-06-03T20:09:09.056Z,50.70
2018-06-03T20:11:39.671Z,50.75
2018-06-03T20:14:11.207Z,51.13
2018-06-03T20:16:41.743Z,51.05
2018-06-03T20:19:13.376Z,50.88
2018-06-03T20:21:43.945Z,50.96
2018-06-03T20:24:14.430Z,50.64
2018-06-03T20:26:44.988Z,50.52
2018-06-03T20:29:16.601Z,50.57
2018-06-03T20:31:47.209Z,50.64
2018-06-03T20:34:18.056Z,51.89
2018-06-03T20:36:48.559Z,51.81
2018-06-03T20:39:19.272Z,51.69
2018-06-03T20:41:49.857Z,52.03
2018-06-03T20:44:20.675Z,53.55
2018-06-03T20:46:51.181Z,54.36
2018-06-03T20:49:22.663Z,54.93
2018-06-03T20:51:53.150Z,55.28
2018-06-03T20:54:23.810Z,56.65
2018-06-03T20:56:54.303Z,57.36
2018-06-03T20:59:25.428Z,58.08
2018-06-03T21:01:56.812Z,58.75
2018-06-03T21:04:27.664Z,58.53
2018-06-03T21:06:58.156Z,60.06
2018-06-03T21:09:29.723Z,60.47
2018-06-03T21:11:59.801Z,60.89
2018-06-03T21:14:30.239Z,60.70
2018-06-03T21:17:00.715Z,60.79
2018-06-03T21:19:32.194Z,61.42
2018-06-03T21:22:02.763Z,61.48
2018-06-03T21:24:34.221Z,62.07
2018-06-03T21:27:04.750Z,62.04
2018-06-03T21:29:36.240Z,62.58
2018-06-03T21:32:06.778Z,63.40
2018-06-03T21:34:37.273Z,63.08
2018-06-03T21:37:07.767Z,63.07
2018-06-03T21:39:38.283Z,63.62
2018-06-03T21:42:08.824Z,62.78
2018-06-03T21:44:39.296Z,62.63
2018-06-03T21:47:09.802Z,63.86
2018-06-03T21:49:40.158Z,63.46
2018-06-03T21:52:10.522Z,64.21
2018-06-03T21:54:41.985Z,64.25
2018-06-03T21:57:12.438Z,64.67
2018-06-03T21:59:42.926Z,63.98
2018-06-03T22:02:13.393Z,64.12
2018-06-03T22:04:44.121Z,64.57
2018-06-03T22:07:14.595Z,64.48
2018-06-03T22:09:45.116Z,65.31
2018-06-03T22:12:15.625Z,65.08
2018-06-03T22:14:46.097Z,65.50
2018-06-03T22:17:16.623Z,65.30
2018-06-03T22:19:48.089Z,66.16
2018-06-03T22:22:18.787Z,66.16
2018-06-03T22:24:49.276Z,65.77
2018-06-03T22:27:19.780Z,66.02
2018-06-03T22:29:51.426Z,65.92
2018-06-03T22:32:21.865Z,66.06
2018-06-03T22:34:52.385Z,66.31
2018-06-03T22:37:22.909Z,67.29
2018-06-03T22:39:53.372Z,66.87
2018-06-03T22:42:24.152Z,67.37
2018-06-03T22:44:54.741Z,66.76
2018-06-03T22:47:25.217Z,67.32
2018-06-03T22:49:55.811Z,67.10
2018-06-03T22:52:27.509Z,67.23
2018-06-03T22:54:58.968Z,67.83
2018-06-03T22:57:53.786Z,68.70
2018-06-03T23:00:31.063Z,68.88
2018-06-03T23:03:06.685Z,69.26
2018-06-03T23:05:37.170Z,69.69
2018-06-03T23:08:08.979Z,69.32
2018-06-03T23:10:39.407Z,68.91
2018-06-03T23:13:09.896Z,69.05
2018-06-03T23:15:40.629Z,69.18
2018-06-03T23:18:11.106Z,69.70
2018-06-03T23:20:41.528Z,70.30
2018-06-03T23:23:12.037Z,71.18
2018-06-03T23:25:42.468Z,70.72
2018-06-03T23:28:12.930Z,70.21
2018-06-03T23:30:43.377Z,70.05
2018-06-03T23:33:14.862Z,71.24
2018-06-03T23:35:45.301Z,71.19
2018-06-03T23:38:15.870Z,70.79
2018-06-03T23:40:46.333Z,71.25
2018-06-03T23:43:16.805Z,70.58
2018-06-03T23:45:47.262Z,70.73
2018-06-03T23:48:19.772Z,70.62
2018-06-03T23:50:50.306Z,70.30
2018-06-03T23:53:21.820Z,70.16
2018-06-03T23:55:52.597Z,69.83
2018-06-03T23:58:23.266Z,67.86
